sensor_id;sensor_type;location;lat;lon;timestamp;pressure;altitude;pressure_sealevel;temperature;humidity
34124;BME280;13153;52.316;21.166;2023-06-24T00:02:14;100443.16;;;25.23;47.64
34124;BME280;13153;52.316;21.166;2023-06-24T00:04:40;100436.03;;;25.20;47.70
34124;BME280;13153;52.316;21.166;2023-06-24T00:07:05;100439.72;;;25.18;48.17
34124;BME280;13153;52.316;21.166;2023-06-24T00:09:32;100445.16;;;25.16;47.65
34124;BME280;13153;52.316;21.166;2023-06-24T00:11:59;100440.75;;;25.14;47.96
34124;BME280;13153;52.316;21.166;2023-06-24T00:14:26;100439.97;;;25.10;48.03
34124;BME280;13153;52.316;21.166;2023-06-24T00:16:54;100435.66;;;25.05;48.45
34124;BME280;13153;52.316;21.166;2023-06-24T00:19:21;100439.38;;;25.00;48.06
34124;BME280;13153;52.316;21.166;2023-06-24T00:21:51;100448.47;;;24.96;48.14
34124;BME280;13153;52.316;21.166;2023-06-24T00:24:22;100443.09;;;24.95;48.30
34124;BME280;13153;52.316;21.166;2023-06-24T00:26:54;100446.78;;;24.92;48.29
34124;BME280;13153;52.316;21.166;2023-06-24T00:29:20;100457.53;;;24.92;48.27
34124;BME280;13153;52.316;21.166;2023-06-24T00:31:47;100448.78;;;24.86;48.26
34124;BME280;13153;52.316;21.166;2023-06-24T00:34:12;100455.03;;;24.86;48.51
34124;BME280;13153;52.316;21.166;2023-06-24T00:36:39;100463.25;;;24.83;48.63
34124;BME280;13153;52.316;21.166;2023-06-24T00:39:05;100464.22;;;24.81;48.61
34124;BME280;13153;52.316;21.166;2023-06-24T00:41:34;100466.03;;;24.80;48.42
34124;BME280;13153;52.316;21.166;2023-06-24T00:44:00;100469.69;;;24.78;48.82
34124;BME280;13153;52.316;21.166;2023-06-24T00:46:28;100476.06;;;24.75;49.03
34124;BME280;13153;52.316;21.166;2023-06-24T00:48:57;100475.22;;;24.73;48.96
34124;BME280;13153;52.316;21.166;2023-06-24T00:51:24;100473.41;;;24.74;49.12
34124;BME280;13153;52.316;21.166;2023-06-24T00:53:58;100477.84;;;24.75;49.05
34124;BME280;13153;52.316;21.166;2023-06-24T00:56:37;100470.72;;;24.74;48.97
34124;BME280;13153;52.316;21.166;2023-06-24T00:59:06;100477.94;;;24.72;49.15
34124;BME280;13153;52.316;21.166;2023-06-24T01:01:34;100478.94;;;24.69;49.12
34124;BME280;13153;52.316;21.166;2023-06-24T01:04:02;100485.28;;;24.66;49.42
34124;BME280;13153;52.316;21.166;2023-06-24T01:06:30;100484.50;;;24.63;48.94
34124;BME280;13153;52.316;21.166;2023-06-24T01:09:00;100492.59;;;24.61;48.71
34124;BME280;13153;52.316;21.166;2023-06-24T01:11:31;100490.88;;;24.59;48.99
34124;BME280;13153;52.316;21.166;2023-06-24T01:13:57;100505.22;;;24.59;49.25
34124;BME280;13153;52.316;21.166;2023-06-24T01:25:29;100503.63;;;24.52;49.53
34124;BME280;13153;52.316;21.166;2023-06-24T01:31:34;100512.75;;;24.47;48.75
34124;BME280;13153;52.316;21.166;2023-06-24T01:36:36;100513.72;;;24.44;48.87
34124;BME280;13153;52.316;21.166;2023-06-24T01:39:07;100510.13;;;24.45;48.99
34124;BME280;13153;52.316;21.166;2023-06-24T01:41:44;100514.69;;;24.42;48.76
34124;BME280;13153;52.316;21.166;2023-06-24T01:44:15;100511.13;;;24.41;49.12
34124;BME280;13153;52.316;21.166;2023-06-24T01:46:45;100511.97;;;24.43;48.90
34124;BME280;13153;52.316;21.166;2023-06-24T01:49:14;100511.09;;;24.43;49.16
34124;BME280;13153;52.316;21.166;2023-06-24T01:51:44;100511.09;;;24.43;49.12
34124;BME280;13153;52.316;21.166;2023-06-24T01:54:17;100509.44;;;24.37;49.32
34124;BME280;13153;52.316;21.166;2023-06-24T01:56:49;100506.00;;;24.32;49.23
34124;BME280;13153;52.316;21.166;2023-06-24T01:59:20;100504.28;;;24.29;49.53
34124;BME280;13153;52.316;21.166;2023-06-24T02:01:47;100507.00;;;24.28;49.83
34124;BME280;13153;52.316;21.166;2023-06-24T02:04:15;100506.22;;;24.24;49.68
34124;BME280;13153;52.316;21.166;2023-06-24T02:06:43;100509.88;;;24.22;49.99
34124;BME280;13153;52.316;21.166;2023-06-24T02:09:11;100515.28;;;24.20;49.63
34124;BME280;13153;52.316;21.166;2023-06-24T02:11:38;100508.34;;;24.12;49.75
34124;BME280;13153;52.316;21.166;2023-06-24T02:14:06;100516.63;;;24.04;49.96
34124;BME280;13153;52.316;21.166;2023-06-24T02:16:35;100517.69;;;23.97;50.36
34124;BME280;13153;52.316;21.166;2023-06-24T02:19:02;100518.63;;;23.96;50.14
34124;BME280;13153;52.316;21.166;2023-06-24T02:21:31;100532.06;;;23.96;50.20
34124;BME280;13153;52.316;21.166;2023-06-24T02:23:58;100533.81;;;23.97;50.49
34124;BME280;13153;52.316;21.166;2023-06-24T02:26:25;100542.81;;;23.96;50.42
34124;BME280;13153;52.316;21.166;2023-06-24T02:28:53;100540.13;;;23.96;50.86
34124;BME280;13153;52.316;21.166;2023-06-24T02:31:20;100541.00;;;23.96;50.79
34124;BME280;13153;52.316;21.166;2023-06-24T02:33:46;100537.44;;;23.96;50.47
34124;BME280;13153;52.316;21.166;2023-06-24T02:36:12;100542.81;;;23.96;50.93
34124;BME280;13153;52.316;21.166;2023-06-24T02:38:38;100540.97;;;23.98;50.62
34124;BME280;13153;52.316;21.166;2023-06-24T02:41:04;100549.97;;;23.97;50.39
34124;BME280;13153;52.316;21.166;2023-06-24T02:43:30;100550.00;;;23.95;50.88
34124;BME280;13153;52.316;21.166;2023-06-24T02:45:59;100550.00;;;23.95;50.90
34124;BME280;13153;52.316;21.166;2023-06-24T02:48:29;100547.28;;;23.97;51.02
34124;BME280;13153;52.316;21.166;2023-06-24T02:50:58;100550.81;;;23.99;50.98
34124;BME280;13153;52.316;21.166;2023-06-24T02:53:25;100559.72;;;24.01;50.65
34124;BME280;13153;52.316;21.166;2023-06-24T02:55:52;100548.03;;;24.02;50.94
34124;BME280;13153;52.316;21.166;2023-06-24T02:58:20;100549.72;;;24.06;50.79
34124;BME280;13153;52.316;21.166;2023-06-24T03:00:46;100551.50;;;24.07;51.01
34124;BME280;13153;52.316;21.166;2023-06-24T03:03:15;100547.88;;;24.08;51.09
34124;BME280;13153;52.316;21.166;2023-06-24T03:05:43;100553.19;;;24.11;51.04
34124;BME280;13153;52.316;21.166;2023-06-24T03:08:10;100560.28;;;24.14;51.23
34124;BME280;13153;52.316;21.166;2023-06-24T03:10:37;100555.78;;;24.14;51.24
34124;BME280;13153;52.316;21.166;2023-06-24T03:13:03;100560.25;;;24.15;50.54
34124;BME280;13153;52.316;21.166;2023-06-24T03:15:29;100564.63;;;24.19;50.83
34124;BME280;13153;52.316;21.166;2023-06-24T03:17:55;100571.69;;;24.23;50.50
34124;BME280;13153;52.316;21.166;2023-06-24T03:20:21;100571.59;;;24.26;50.83
34124;BME280;13153;52.316;21.166;2023-06-24T03:22:46;100581.34;;;24.30;50.62
34124;BME280;13153;52.316;21.166;2023-06-24T03:25:12;100573.16;;;24.35;50.89
34124;BME280;13153;52.316;21.166;2023-06-24T03:27:38;100577.44;;;24.42;50.57
34124;BME280;13153;52.316;21.166;2023-06-24T03:30:04;100575.41;;;24.52;50.51
34124;BME280;13153;52.316;21.166;2023-06-24T03:32:30;100582.28;;;24.62;50.17
34124;BME280;13153;52.316;21.166;2023-06-24T03:34:56;100592.19;;;24.91;50.07
34124;BME280;13153;52.316;21.166;2023-06-24T03:37:22;100582.75;;;25.38;49.31
34124;BME280;13153;52.316;21.166;2023-06-24T03:39:47;100596.53;;;25.85;47.86
34124;BME280;13153;52.316;21.166;2023-06-24T03:42:13;100599.66;;;26.24;46.67
34124;BME280;13153;52.316;21.166;2023-06-24T03:44:39;100599.78;;;26.47;46.10
34124;BME280;13153;52.316;21.166;2023-06-24T03:47:05;100596.16;;;26.48;46.07
34124;BME280;13153;52.316;21.166;2023-06-24T03:49:30;100595.06;;;26.54;45.91
34124;BME280;13153;52.316;21.166;2023-06-24T03:51:56;100595.00;;;26.55;46.42
34124;BME280;13153;52.316;21.166;2023-06-24T03:54:22;100593.97;;;26.58;46.23
34124;BME280;13153;52.316;21.166;2023-06-24T03:56:47;100595.72;;;26.59;46.14
34124;BME280;13153;52.316;21.166;2023-06-24T03:59:13;100603.34;;;26.73;46.01
34124;BME280;13153;52.316;21.166;2023-06-24T04:01:39;100615.19;;;26.93;45.88
34124;BME280;13153;52.316;21.166;2023-06-24T04:04:05;100606.16;;;27.41;44.83
34124;BME280;13153;52.316;21.166;2023-06-24T04:06:30;100611.78;;;28.02;43.92
34124;BME280;13153;52.316;21.166;2023-06-24T04:08:56;100608.50;;;28.58;42.64
34124;BME280;13153;52.316;21.166;2023-06-24T04:11:22;100604.72;;;28.82;41.75
34124;BME280;13153;52.316;21.166;2023-06-24T04:13:48;100595.75;;;28.60;41.69
34124;BME280;13153;52.316;21.166;2023-06-24T04:16:14;100598.06;;;28.29;41.85
34124;BME280;13153;52.316;21.166;2023-06-24T04:18:40;100597.50;;;27.99;42.53
34124;BME280;13153;52.316;21.166;2023-06-24T04:21:06;100583.47;;;27.69;43.57
34124;BME280;13153;52.316;21.166;2023-06-24T04:23:33;100596.03;;;27.46;44.00
34124;BME280;13153;52.316;21.166;2023-06-24T04:25:59;100610.19;;;27.29;44.46
34124;BME280;13153;52.316;21.166;2023-06-24T04:28:25;100603.38;;;27.19;44.73
34124;BME280;13153;52.316;21.166;2023-06-24T04:30:52;100601.13;;;27.09;44.94
34124;BME280;13153;52.316;21.166;2023-06-24T04:33:18;100610.47;;;27.00;45.22
34124;BME280;13153;52.316;21.166;2023-06-24T04:35:43;100606.06;;;26.98;45.45
34124;BME280;13153;52.316;21.166;2023-06-24T04:38:12;100607.06;;;26.93;45.32
34124;BME280;13153;52.316;21.166;2023-06-24T04:40:44;100607.81;;;26.99;45.55
34124;BME280;13153;52.316;21.166;2023-06-24T04:43:10;100601.34;;;27.03;45.78
34124;BME280;13153;52.316;21.166;2023-06-24T04:45:36;100597.59;;;27.07;46.04
34124;BME280;13153;52.316;21.166;2023-06-24T04:48:02;100599.94;;;27.16;45.74
34124;BME280;13153;52.316;21.166;2023-06-24T04:50:27;100605.69;;;27.30;45.51
34124;BME280;13153;52.316;21.166;2023-06-24T04:52:54;100600.97;;;27.35;45.50
34124;BME280;13153;52.316;21.166;2023-06-24T04:55:23;100598.34;;;27.34;45.73
34124;BME280;13153;52.316;21.166;2023-06-24T04:57:49;100601.22;;;27.29;45.81
34124;BME280;13153;52.316;21.166;2023-06-24T05:00:15;100604.34;;;27.18;44.33
34124;BME280;13153;52.316;21.166;2023-06-24T05:02:41;100612.06;;;27.06;44.59
34124;BME280;13153;52.316;21.166;2023-06-24T05:05:07;100611.53;;;26.94;45.11
34124;BME280;13153;52.316;21.166;2023-06-24T05:07:33;100606.25;;;26.91;45.49
34124;BME280;13153;52.316;21.166;2023-06-24T05:09:58;100607.91;;;26.95;46.16
34124;BME280;13153;52.316;21.166;2023-06-24T05:12:24;100612.41;;;26.96;45.88
34124;BME280;13153;52.316;21.166;2023-06-24T05:14:53;100607.00;;;26.96;46.34
34124;BME280;13153;52.316;21.166;2023-06-24T05:17:21;100621.38;;;26.97;45.83
34124;BME280;13153;52.316;21.166;2023-06-24T05:19:47;100616.00;;;26.95;45.30
34124;BME280;13153;52.316;21.166;2023-06-24T05:22:13;100626.66;;;27.00;45.41
34124;BME280;13153;52.316;21.166;2023-06-24T05:24:38;100631.72;;;27.09;45.51
34124;BME280;13153;52.316;21.166;2023-06-24T05:27:07;100631.28;;;27.20;44.35
34124;BME280;13153;52.316;21.166;2023-06-24T05:29:33;100632.81;;;27.27;44.36
34124;BME280;13153;52.316;21.166;2023-06-24T05:32:00;100628.81;;;27.37;45.00
34124;BME280;13153;52.316;21.166;2023-06-24T05:34:27;100629.13;;;27.53;44.50
34124;BME280;13153;52.316;21.166;2023-06-24T05:36:53;100632.13;;;27.69;43.89
34124;BME280;13153;52.316;21.166;2023-06-24T05:39:20;100641.34;;;27.85;43.98
34124;BME280;13153;52.316;21.166;2023-06-24T05:41:46;100642.25;;;28.07;43.99
34124;BME280;13153;52.316;21.166;2023-06-24T05:44:14;100650.91;;;28.37;42.92
34124;BME280;13153;52.316;21.166;2023-06-24T05:46:40;100659.47;;;28.69;42.41
34124;BME280;13153;52.316;21.166;2023-06-24T05:49:06;100662.50;;;29.02;41.47
34124;BME280;13153;52.316;21.166;2023-06-24T05:51:31;100660.75;;;29.40;41.09
34124;BME280;13153;52.316;21.166;2023-06-24T05:53:57;100667.66;;;29.84;39.79
34124;BME280;13153;52.316;21.166;2023-06-24T05:56:23;100664.38;;;30.33;39.21
34124;BME280;13153;52.316;21.166;2023-06-24T05:58:49;100663.41;;;31.03;38.27
34124;BME280;13153;52.316;21.166;2023-06-24T06:01:15;100675.25;;;31.83;36.39
34124;BME280;13153;52.316;21.166;2023-06-24T06:03:40;100675.03;;;33.38;34.54
34124;BME280;13153;52.316;21.166;2023-06-24T06:06:06;100664.16;;;35.37;32.39
34124;BME280;13153;52.316;21.166;2023-06-24T06:08:33;100674.56;;;36.66;28.55
34124;BME280;13153;52.316;21.166;2023-06-24T06:11:00;100678.63;;;37.30;28.09
34124;BME280;13153;52.316;21.166;2023-06-24T06:13:28;100678.66;;;37.42;26.71
34124;BME280;13153;52.316;21.166;2023-06-24T06:15:55;100671.31;;;37.07;27.05
34124;BME280;13153;52.316;21.166;2023-06-24T06:18:21;100675.09;;;36.71;28.73
34124;BME280;13153;52.316;21.166;2023-06-24T06:20:47;100670.50;;;36.36;28.41
34124;BME280;13153;52.316;21.166;2023-06-24T06:23:13;100686.44;;;35.82;29.10
34124;BME280;13153;52.316;21.166;2023-06-24T06:25:38;100677.19;;;35.47;30.11
34124;BME280;13153;52.316;21.166;2023-06-24T06:28:05;100684.63;;;35.19;30.98
34124;BME280;13153;52.316;21.166;2023-06-24T06:30:30;100679.53;;;34.75;31.50
34124;BME280;13153;52.316;21.166;2023-06-24T06:32:56;100680.22;;;34.39;32.76
34124;BME280;13153;52.316;21.166;2023-06-24T06:35:22;100675.09;;;34.47;32.28
34124;BME280;13153;52.316;21.166;2023-06-24T06:37:48;100662.91;;;34.65;31.90
34124;BME280;13153;52.316;21.166;2023-06-24T06:40:21;100672.78;;;34.81;32.22
34124;BME280;13153;52.316;21.166;2023-06-24T06:42:47;100672.91;;;35.04;32.24
34124;BME280;13153;52.316;21.166;2023-06-24T06:45:13;100675.78;;;35.41;31.13
34124;BME280;13153;52.316;21.166;2023-06-24T06:47:39;100677.59;;;35.79;30.88
34124;BME280;13153;52.316;21.166;2023-06-24T06:50:06;100684.31;;;35.98;29.90
34124;BME280;13153;52.316;21.166;2023-06-24T06:52:32;100691.97;;;36.06;29.95
34124;BME280;13153;52.316;21.166;2023-06-24T06:54:58;100688.13;;;36.09;29.38
34124;BME280;13153;52.316;21.166;2023-06-24T06:57:24;100684.09;;;36.01;28.69
34124;BME280;13153;52.316;21.166;2023-06-24T06:59:50;100687.75;;;35.89;29.18
34124;BME280;13153;52.316;21.166;2023-06-24T07:02:17;100686.59;;;35.55;29.20
34124;BME280;13153;52.316;21.166;2023-06-24T07:04:44;100685.97;;;35.39;29.83
34124;BME280;13153;52.316;21.166;2023-06-24T07:07:10;100683.53;;;35.34;29.92
34124;BME280;13153;52.316;21.166;2023-06-24T07:09:36;100674.13;;;35.51;30.60
34124;BME280;13153;52.316;21.166;2023-06-24T07:12:02;100676.28;;;35.71;30.25
34124;BME280;13153;52.316;21.166;2023-06-24T07:14:27;100675.25;;;35.85;30.44
34124;BME280;13153;52.316;21.166;2023-06-24T07:16:53;100680.06;;;35.94;29.87
34124;BME280;13153;52.316;21.166;2023-06-24T07:19:19;100673.53;;;36.08;30.66
34124;BME280;13153;52.316;21.166;2023-06-24T07:21:45;100673.38;;;36.46;30.13
34124;BME280;13153;52.316;21.166;2023-06-24T07:24:11;100675.69;;;36.98;29.02
34124;BME280;13153;52.316;21.166;2023-06-24T07:26:36;100671.53;;;37.39;28.91
34124;BME280;13153;52.316;21.166;2023-06-24T07:29:06;100662.28;;;37.74;27.97
34124;BME280;13153;52.316;21.166;2023-06-24T07:31:33;100666.63;;;37.98;27.80
34124;BME280;13153;52.316;21.166;2023-06-24T07:33:59;100664.59;;;38.12;27.24
34124;BME280;13153;52.316;21.166;2023-06-24T07:36:24;100663.84;;;38.10;27.01
34124;BME280;13153;52.316;21.166;2023-06-24T07:38:50;100673.13;;;37.97;26.32
34124;BME280;13153;52.316;21.166;2023-06-24T07:41:16;100668.13;;;37.91;26.27
34124;BME280;13153;52.316;21.166;2023-06-24T07:43:42;100670.66;;;37.50;25.85
34124;BME280;13153;52.316;21.166;2023-06-24T07:46:07;100667.19;;;36.79;26.91
34124;BME280;13153;52.316;21.166;2023-06-24T07:48:33;100668.75;;;36.47;27.55
34124;BME280;13153;52.316;21.166;2023-06-24T07:50:59;100672.28;;;36.25;27.68
34124;BME280;13153;52.316;21.166;2023-06-24T07:53:25;100684.91;;;36.15;26.95
34124;BME280;13153;52.316;21.166;2023-06-24T07:55:50;100678.31;;;35.93;27.53
34124;BME280;13153;52.316;21.166;2023-06-24T07:58:16;100676.16;;;35.73;27.88
34124;BME280;13153;52.316;21.166;2023-06-24T08:00:42;100680.69;;;35.61;27.73
34124;BME280;13153;52.316;21.166;2023-06-24T08:03:08;100678.94;;;35.60;27.71
34124;BME280;13153;52.316;21.166;2023-06-24T08:05:34;100681.34;;;35.52;28.16
34124;BME280;13153;52.316;21.166;2023-06-24T08:07:59;100685.63;;;35.31;28.24
34124;BME280;13153;52.316;21.166;2023-06-24T08:10:25;100684.09;;;35.14;29.47
34124;BME280;13153;52.316;21.166;2023-06-24T08:12:51;100686.03;;;34.87;28.40
34124;BME280;13153;52.316;21.166;2023-06-24T08:15:17;100689.91;;;34.57;28.93
34124;BME280;13153;52.316;21.166;2023-06-24T08:17:42;100691.09;;;34.53;29.71
34124;BME280;13153;52.316;21.166;2023-06-24T08:20:09;100697.31;;;34.55;30.38
34124;BME280;13153;52.316;21.166;2023-06-24T08:22:35;100690.88;;;34.56;29.81
34124;BME280;13153;52.316;21.166;2023-06-24T08:25:01;100685.63;;;34.53;30.08
34124;BME280;13153;52.316;21.166;2023-06-24T08:27:26;100694.59;;;34.55;30.25
34124;BME280;13153;52.316;21.166;2023-06-24T08:29:52;100691.16;;;34.39;29.75
34124;BME280;13153;52.316;21.166;2023-06-24T08:32:18;100689.09;;;34.28;29.48
34124;BME280;13153;52.316;21.166;2023-06-24T08:34:44;100696.94;;;34.20;29.93
34124;BME280;13153;52.316;21.166;2023-06-24T08:37:09;100698.88;;;34.18;30.13
34124;BME280;13153;52.316;21.166;2023-06-24T08:39:35;100696.25;;;34.17;28.94
34124;BME280;13153;52.316;21.166;2023-06-24T08:42:03;100688.34;;;33.99;28.24
34124;BME280;13153;52.316;21.166;2023-06-24T08:44:28;100692.44;;;33.92;30.11
34124;BME280;13153;52.316;21.166;2023-06-24T08:46:54;100685.91;;;33.95;30.45
34124;BME280;13153;52.316;21.166;2023-06-24T08:52:15;100702.22;;;33.82;29.51
34124;BME280;13153;52.316;21.166;2023-06-24T08:54:47;100704.53;;;33.74;29.53
34124;BME280;13153;52.316;21.166;2023-06-24T08:57:14;100705.81;;;33.68;28.64
34124;BME280;13153;52.316;21.166;2023-06-24T08:59:42;100705.91;;;33.53;29.70
34124;BME280;13153;52.316;21.166;2023-06-24T09:02:08;100705.66;;;33.43;29.72
34124;BME280;13153;52.316;21.166;2023-06-24T09:04:34;100703.41;;;33.35;29.97
34124;BME280;13153;52.316;21.166;2023-06-24T09:07:00;100710.28;;;33.27;30.22
34124;BME280;13153;52.316;21.166;2023-06-24T09:09:26;100710.38;;;33.25;30.52
34124;BME280;13153;52.316;21.166;2023-06-24T09:11:59;100713.47;;;33.19;28.77
34124;BME280;13153;52.316;21.166;2023-06-24T09:14:29;100712.59;;;33.19;28.93
34124;BME280;13153;52.316;21.166;2023-06-24T09:16:58;100708.31;;;33.14;30.15
34124;BME280;13153;52.316;21.166;2023-06-24T09:19:26;100715.13;;;33.07;29.78
34124;BME280;13153;52.316;21.166;2023-06-24T09:22:12;100713.44;;;32.91;30.13
34124;BME280;13153;52.316;21.166;2023-06-24T09:24:44;100708.00;;;32.75;29.98
34124;BME280;13153;52.316;21.166;2023-06-24T09:27:17;100708.75;;;32.63;30.15
34124;BME280;13153;52.316;21.166;2023-06-24T09:29:46;100702.72;;;32.42;29.80
34124;BME280;13153;52.316;21.166;2023-06-24T09:32:13;100700.06;;;32.26;30.34
34124;BME280;13153;52.316;21.166;2023-06-24T09:34:39;100703.53;;;32.12;30.60
34124;BME280;13153;52.316;21.166;2023-06-24T09:37:05;100705.81;;;32.04;30.83
34124;BME280;13153;52.316;21.166;2023-06-24T09:39:39;100699.16;;;31.94;31.07
34124;BME280;13153;52.316;21.166;2023-06-24T09:42:06;100694.06;;;31.88;31.06
34124;BME280;13153;52.316;21.166;2023-06-24T09:44:33;100699.84;;;31.82;31.93
34124;BME280;13153;52.316;21.166;2023-06-24T09:46:59;100694.06;;;31.72;31.11
34124;BME280;13153;52.316;21.166;2023-06-24T09:49:25;100698.84;;;31.67;30.99
34124;BME280;13153;52.316;21.166;2023-06-24T09:51:56;100705.53;;;31.77;31.98
34124;BME280;13153;52.316;21.166;2023-06-24T09:54:28;100704.16;;;31.86;32.57
34124;BME280;13153;52.316;21.166;2023-06-24T09:56:58;100700.13;;;31.93;32.51
34124;BME280;13153;52.316;21.166;2023-06-24T09:59:26;100704.41;;;31.97;31.59
34124;BME280;13153;52.316;21.166;2023-06-24T10:01:53;100702.84;;;31.93;30.43
34124;BME280;13153;52.316;21.166;2023-06-24T10:04:21;100700.13;;;31.93;32.11
34124;BME280;13153;52.316;21.166;2023-06-24T10:06:48;100700.38;;;32.04;31.76
34124;BME280;13153;52.316;21.166;2023-06-24T10:09:14;100700.72;;;32.14;32.07
34124;BME280;13153;52.316;21.166;2023-06-24T10:11:44;100700.22;;;32.23;32.17
34124;BME280;13153;52.316;21.166;2023-06-24T10:14:11;100697.53;;;32.37;31.87
34124;BME280;13153;52.316;21.166;2023-06-24T10:16:37;100697.09;;;32.45;31.19
34124;BME280;13153;52.316;21.166;2023-06-24T10:19:04;100699.63;;;32.48;30.69
34124;BME280;13153;52.316;21.166;2023-06-24T10:21:52;100700.06;;;32.56;31.80
34124;BME280;13153;52.316;21.166;2023-06-24T10:24:33;100699.47;;;32.51;31.48
34124;BME280;13153;52.316;21.166;2023-06-24T10:27:07;100705.09;;;32.48;32.06
34124;BME280;13153;52.316;21.166;2023-06-24T10:29:36;100695.13;;;32.33;30.18
34124;BME280;13153;52.316;21.166;2023-06-24T10:32:07;100697.56;;;32.22;30.68
34124;BME280;13153;52.316;21.166;2023-06-24T10:44:54;100699.41;;;32.05;30.89
34124;BME280;13153;52.316;21.166;2023-06-24T10:47:22;100682.81;;;31.94;30.59
34124;BME280;13153;52.316;21.166;2023-06-24T10:49:49;100690.44;;;31.88;30.79
34124;BME280;13153;52.316;21.166;2023-06-24T10:52:19;100688.88;;;31.83;30.11
34124;BME280;13153;52.316;21.166;2023-06-24T10:54:46;100685.34;;;31.81;30.90
34124;BME280;13153;52.316;21.166;2023-06-24T10:57:12;100690.38;;;31.89;31.73
34124;BME280;13153;52.316;21.166;2023-06-24T10:59:48;100688.88;;;31.99;31.64
34124;BME280;13153;52.316;21.166;2023-06-24T11:02:20;100695.81;;;32.05;31.60
34124;BME280;13153;52.316;21.166;2023-06-24T11:04:55;100697.13;;;32.13;32.29
34124;BME280;13153;52.316;21.166;2023-06-24T11:07:27;100690.72;;;32.14;31.18
34124;BME280;13153;52.316;21.166;2023-06-24T11:09:55;100691.78;;;32.12;29.49
34124;BME280;13153;52.316;21.166;2023-06-24T11:12:36;100694.31;;;32.15;29.87
34124;BME280;13153;52.316;21.166;2023-06-24T11:15:11;100685.56;;;32.26;31.26
34124;BME280;13153;52.316;21.166;2023-06-24T11:17:38;100688.88;;;32.31;31.23
34124;BME280;13153;52.316;21.166;2023-06-24T11:20:10;100689.69;;;32.33;31.56
34124;BME280;13153;52.316;21.166;2023-06-24T11:22:36;100694.59;;;32.26;31.26
34124;BME280;13153;52.316;21.166;2023-06-24T11:25:03;100704.06;;;32.19;30.66
34124;BME280;13153;52.316;21.166;2023-06-24T11:27:31;100702.75;;;32.10;30.69
34124;BME280;13153;52.316;21.166;2023-06-24T11:30:00;100705.13;;;32.01;31.39
34124;BME280;13153;52.316;21.166;2023-06-24T11:32:41;100697.91;;;31.84;31.69
34124;BME280;13153;52.316;21.166;2023-06-24T11:35:10;100697.84;;;31.70;30.79
34124;BME280;13153;52.316;21.166;2023-06-24T11:37:37;100704.19;;;31.53;31.85
34124;BME280;13153;52.316;21.166;2023-06-24T11:40:06;100707.81;;;31.36;31.54
34124;BME280;13153;52.316;21.166;2023-06-24T11:42:36;100702.53;;;31.17;31.43
34124;BME280;13153;52.316;21.166;2023-06-24T11:45:08;100705.94;;;31.04;31.72
34124;BME280;13153;52.316;21.166;2023-06-24T11:47:36;100705.63;;;30.93;31.82
34124;BME280;13153;52.316;21.166;2023-06-24T11:50:07;100707.00;;;30.84;31.80
34124;BME280;13153;52.316;21.166;2023-06-24T11:52:46;100711.16;;;30.74;32.29
34124;BME280;13153;52.316;21.166;2023-06-24T11:55:23;100708.28;;;30.60;33.47
34124;BME280;13153;52.316;21.166;2023-06-24T11:58:00;100707.78;;;30.51;33.17
34124;BME280;13153;52.316;21.166;2023-06-24T12:00:39;100716.31;;;30.44;34.22
34124;BME280;13153;52.316;21.166;2023-06-24T12:03:11;100707.59;;;30.37;34.26
34124;BME280;13153;52.316;21.166;2023-06-24T12:05:38;100716.75;;;30.35;34.82
34124;BME280;13153;52.316;21.166;2023-06-24T12:08:11;100714.13;;;30.33;35.26
34124;BME280;13153;52.316;21.166;2023-06-24T12:10:39;100714.34;;;30.29;34.58
34124;BME280;13153;52.316;21.166;2023-06-24T12:13:06;100710.09;;;30.23;33.88
34124;BME280;13153;52.316;21.166;2023-06-24T12:15:32;100711.13;;;30.20;34.91
34124;BME280;13153;52.316;21.166;2023-06-24T12:17:59;100716.56;;;30.20;35.25
34124;BME280;13153;52.316;21.166;2023-06-24T12:20:25;100705.78;;;30.19;35.28
34124;BME280;13153;52.316;21.166;2023-06-24T12:22:52;100715.03;;;30.15;35.04
34124;BME280;13153;52.316;21.166;2023-06-24T12:25:18;100722.44;;;30.11;34.16
34124;BME280;13153;52.316;21.166;2023-06-24T12:27:44;100717.81;;;30.13;35.70
34124;BME280;13153;52.316;21.166;2023-06-24T12:30:12;100710.47;;;30.15;34.95
34124;BME280;13153;52.316;21.166;2023-06-24T12:32:38;100714.72;;;30.21;35.08
34124;BME280;13153;52.316;21.166;2023-06-24T12:35:05;100723.59;;;30.25;34.84
34124;BME280;13153;52.316;21.166;2023-06-24T12:37:33;100722.56;;;30.27;35.68
34124;BME280;13153;52.316;21.166;2023-06-24T12:40:00;100718.69;;;30.33;35.65
34124;BME280;13153;52.316;21.166;2023-06-24T12:42:26;100720.44;;;30.34;35.34
34124;BME280;13153;52.316;21.166;2023-06-24T12:44:52;100719.41;;;30.36;35.51
34124;BME280;13153;52.316;21.166;2023-06-24T12:47:19;100722.13;;;30.36;34.70
34124;BME280;13153;52.316;21.166;2023-06-24T12:49:45;100724.91;;;30.35;34.93
34124;BME280;13153;52.316;21.166;2023-06-24T12:52:15;100724.91;;;30.35;36.05
34124;BME280;13153;52.316;21.166;2023-06-24T12:54:41;100734.09;;;30.32;35.42
34124;BME280;13153;52.316;21.166;2023-06-24T12:57:07;100724.34;;;30.28;35.83
34124;BME280;13153;52.316;21.166;2023-06-24T12:59:33;100726.47;;;30.21;35.16
34124;BME280;13153;52.316;21.166;2023-06-24T13:01:58;100724.84;;;30.17;35.34
34124;BME280;13153;52.316;21.166;2023-06-24T13:04:24;100733.31;;;30.11;34.89
34124;BME280;13153;52.316;21.166;2023-06-24T13:06:53;100722.66;;;30.07;35.19
34124;BME280;13153;52.316;21.166;2023-06-24T13:09:19;100726.50;;;30.03;35.66
34124;BME280;13153;52.316;21.166;2023-06-24T13:11:46;100720.22;;;30.02;35.22